sensor_id;sensor_type;location;lat;lon;timestamp;P1;durP1;ratioP1;P2;durP2;ratioP2
76443;SDS011;65282;51.362;10.082;2022-12-07T00:01:32;15.40;;;7.30;;
76443;SDS011;65282;51.362;10.082;2022-12-07T00:04:01;12.97;;;6.53;;
76443;SDS011;65282;51.362;10.082;2022-12-07T00:06:29;21.97;;;9.80;;
76443;SDS011;65282;51.362;10.082;2022-12-07T00:08:57;16.53;;;6.97;;
76443;SDS011;65282;51.362;10.082;2022-12-07T00:11:24;22.43;;;9.00;;
76443;SDS011;65282;51.362;10.082;2022-12-07T00:13:53;24.23;;;8.23;;
76443;SDS011;65282;51.362;10.082;2022-12-07T00:16:22;13.27;;;6.57;;
76443;SDS011;65282;51.362;10.082;2022-12-07T00:18:50;19.67;;;7.57;;
76443;SDS011;65282;51.362;10.082;2022-12-07T00:21:18;28.27;;;10.63;;
76443;SDS011;65282;51.362;10.082;2022-12-07T00:23:50;21.73;;;9.20;;
76443;SDS011;65282;51.362;10.082;2022-12-07T00:26:18;22.90;;;8.90;;
76443;SDS011;65282;51.362;10.082;2022-12-07T00:28:46;40.30;;;11.03;;
76443;SDS011;65282;51.362;10.082;2022-12-07T00:31:15;25.83;;;8.93;;
76443;SDS011;65282;51.362;10.082;2022-12-07T00:33:44;18.80;;;7.70;;
76443;SDS011;65282;51.362;10.082;2022-12-07T00:36:12;18.10;;;7.67;;
76443;SDS011;65282;51.362;10.082;2022-12-07T00:38:40;17.13;;;6.93;;
76443;SDS011;65282;51.362;10.082;2022-12-07T00:41:09;17.27;;;7.00;;
76443;SDS011;65282;51.362;10.082;2022-12-07T00:43:38;13.70;;;6.77;;
76443;SDS011;65282;51.362;10.082;2022-12-07T00:46:06;13.00;;;6.93;;
76443;SDS011;65282;51.362;10.082;2022-12-07T00:48:35;15.87;;;6.83;;
76443;SDS011;65282;51.362;10.082;2022-12-07T00:51:02;14.30;;;7.43;;
76443;SDS011;65282;51.362;10.082;2022-12-07T00:53:30;24.13;;;7.63;;
76443;SDS011;65282;51.362;10.082;2022-12-07T00:56:06;18.20;;;6.83;;
76443;SDS011;65282;51.362;10.082;2022-12-07T00:58:34;18.87;;;8.03;;
76443;SDS011;65282;51.362;10.082;2022-12-07T01:01:01;16.50;;;6.90;;
76443;SDS011;65282;51.362;10.082;2022-12-07T01:03:30;17.73;;;7.77;;
76443;SDS011;65282;51.362;10.082;2022-12-07T01:05:58;17.30;;;7.93;;
76443;SDS011;65282;51.362;10.082;2022-12-07T01:08:25;12.90;;;5.73;;
76443;SDS011;65282;51.362;10.082;2022-12-07T01:10:57;15.97;;;7.27;;
76443;SDS011;65282;51.362;10.082;2022-12-07T01:13:25;17.20;;;7.60;;
76443;SDS011;65282;51.362;10.082;2022-12-07T01:15:55;26.03;;;9.63;;
76443;SDS011;65282;51.362;10.082;2022-12-07T01:18:23;26.97;;;9.57;;
76443;SDS011;65282;51.362;10.082;2022-12-07T01:21:00;13.70;;;7.37;;
76443;SDS011;65282;51.362;10.082;2022-12-07T01:23:27;19.40;;;8.13;;
76443;SDS011;65282;51.362;10.082;2022-12-07T01:25:56;26.70;;;8.77;;
76443;SDS011;65282;51.362;10.082;2022-12-07T01:28:23;15.37;;;7.40;;
76443;SDS011;65282;51.362;10.082;2022-12-07T01:30:55;18.33;;;7.53;;
76443;SDS011;65282;51.362;10.082;2022-12-07T01:33:22;26.70;;;9.17;;
76443;SDS011;65282;51.362;10.082;2022-12-07T01:35:49;25.67;;;9.20;;
76443;SDS011;65282;51.362;10.082;2022-12-07T01:38:17;17.30;;;8.87;;
76443;SDS011;65282;51.362;10.082;2022-12-07T01:40:44;16.03;;;7.97;;
76443;SDS011;65282;51.362;10.082;2022-12-07T01:43:14;20.03;;;7.33;;
76443;SDS011;65282;51.362;10.082;2022-12-07T01:45:44;18.67;;;8.47;;
76443;SDS011;65282;51.362;10.082;2022-12-07T01:48:12;21.83;;;9.13;;
76443;SDS011;65282;51.362;10.082;2022-12-07T01:50:42;17.60;;;7.83;;
76443;SDS011;65282;51.362;10.082;2022-12-07T01:53:11;19.27;;;8.47;;
76443;SDS011;65282;51.362;10.082;2022-12-07T01:55:41;14.40;;;7.77;;
76443;SDS011;65282;51.362;10.082;2022-12-07T01:58:10;26.83;;;10.33;;
76443;SDS011;65282;51.362;10.082;2022-12-07T02:00:38;19.77;;;9.27;;
76443;SDS011;65282;51.362;10.082;2022-12-07T02:03:08;16.90;;;7.63;;
76443;SDS011;65282;51.362;10.082;2022-12-07T02:05:41;20.57;;;8.37;;
76443;SDS011;65282;51.362;10.082;2022-12-07T02:08:09;25.73;;;9.17;;
76443;SDS011;65282;51.362;10.082;2022-12-07T02:10:38;23.83;;;9.17;;
76443;SDS011;65282;51.362;10.082;2022-12-07T02:13:08;18.03;;;7.77;;
76443;SDS011;65282;51.362;10.082;2022-12-07T02:15:47;16.97;;;7.87;;
76443;SDS011;65282;51.362;10.082;2022-12-07T02:18:29;19.80;;;8.10;;
76443;SDS011;65282;51.362;10.082;2022-12-07T02:21:07;17.50;;;8.97;;
76443;SDS011;65282;51.362;10.082;2022-12-07T02:23:41;35.97;;;11.17;;
76443;SDS011;65282;51.362;10.082;2022-12-07T02:26:43;16.43;;;6.93;;
76443;SDS011;65282;51.362;10.082;2022-12-07T02:29:29;17.47;;;7.90;;
76443;SDS011;65282;51.362;10.082;2022-12-07T02:32:03;18.53;;;8.13;;
76443;SDS011;65282;51.362;10.082;2022-12-07T02:34:37;13.90;;;7.30;;
76443;SDS011;65282;51.362;10.082;2022-12-07T02:37:13;16.83;;;8.03;;
76443;SDS011;65282;51.362;10.082;2022-12-07T02:39:48;16.80;;;8.27;;
76443;SDS011;65282;51.362;10.082;2022-12-07T02:42:20;17.63;;;8.43;;
76443;SDS011;65282;51.362;10.082;2022-12-07T02:44:54;16.17;;;8.13;;
76443;SDS011;65282;51.362;10.082;2022-12-07T02:47:21;15.27;;;7.67;;
76443;SDS011;65282;51.362;10.082;2022-12-07T02:49:51;16.67;;;8.03;;
76443;SDS011;65282;51.362;10.082;2022-12-07T02:52:18;20.70;;;8.27;;
76443;SDS011;65282;51.362;10.082;2022-12-07T02:54:45;19.93;;;8.67;;
76443;SDS011;65282;51.362;10.082;2022-12-07T02:57:14;17.63;;;7.87;;
76443;SDS011;65282;51.362;10.082;2022-12-07T02:59:57;23.07;;;9.60;;
76443;SDS011;65282;51.362;10.082;2022-12-07T03:02:31;12.93;;;6.70;;
76443;SDS011;65282;51.362;10.082;2022-12-07T03:05:09;15.23;;;6.73;;
76443;SDS011;65282;51.362;10.082;2022-12-07T03:07:48;15.00;;;7.57;;
76443;SDS011;65282;51.362;10.082;2022-12-07T03:10:22;13.57;;;7.33;;
76443;SDS011;65282;51.362;10.082;2022-12-07T03:12:56;12.87;;;6.90;;
76443;SDS011;65282;51.362;10.082;2022-12-07T03:15:31;17.97;;;7.53;;
76443;SDS011;65282;51.362;10.082;2022-12-07T03:17:59;17.80;;;7.57;;
76443;SDS011;65282;51.362;10.082;2022-12-07T03:20:28;13.50;;;7.17;;
76443;SDS011;65282;51.362;10.082;2022-12-07T03:22:56;13.77;;;6.93;;
76443;SDS011;65282;51.362;10.082;2022-12-07T03:25:25;13.10;;;7.37;;
76443;SDS011;65282;51.362;10.082;2022-12-07T03:27:54;11.60;;;5.87;;
76443;SDS011;65282;51.362;10.082;2022-12-07T03:30:24;8.73;;;5.57;;
76443;SDS011;65282;51.362;10.082;2022-12-07T03:32:58;10.93;;;5.30;;
76443;SDS011;65282;51.362;10.082;2022-12-07T03:35:30;15.07;;;7.37;;
76443;SDS011;65282;51.362;10.082;2022-12-07T03:38:02;13.40;;;6.90;;
76443;SDS011;65282;51.362;10.082;2022-12-07T03:40:40;12.53;;;7.13;;
76443;SDS011;65282;51.362;10.082;2022-12-07T03:43:12;13.73;;;6.53;;
76443;SDS011;65282;51.362;10.082;2022-12-07T03:45:40;13.93;;;5.60;;
76443;SDS011;65282;51.362;10.082;2022-12-07T03:48:13;12.13;;;6.27;;
76443;SDS011;65282;51.362;10.082;2022-12-07T03:50:48;12.73;;;6.57;;
76443;SDS011;65282;51.362;10.082;2022-12-07T03:53:19;12.53;;;6.23;;
76443;SDS011;65282;51.362;10.082;2022-12-07T03:55:50;12.23;;;6.67;;
76443;SDS011;65282;51.362;10.082;2022-12-07T03:58:20;14.87;;;6.50;;
76443;SDS011;65282;51.362;10.082;2022-12-07T04:00:49;11.77;;;6.63;;
76443;SDS011;65282;51.362;10.082;2022-12-07T04:03:18;13.13;;;6.77;;
76443;SDS011;65282;51.362;10.082;2022-12-07T04:05:45;12.43;;;7.17;;
76443;SDS011;65282;51.362;10.082;2022-12-07T04:08:12;11.27;;;6.80;;
76443;SDS011;65282;51.362;10.082;2022-12-07T04:10:39;14.07;;;6.97;;
76443;SDS011;65282;51.362;10.082;2022-12-07T04:13:06;10.50;;;5.97;;
76443;SDS011;65282;51.362;10.082;2022-12-07T04:15:32;11.37;;;6.30;;
76443;SDS011;65282;51.362;10.082;2022-12-07T04:17:59;10.77;;;6.20;;
76443;SDS011;65282;51.362;10.082;2022-12-07T04:20:27;14.43;;;6.63;;
76443;SDS011;65282;51.362;10.082;2022-12-07T04:22:54;13.20;;;7.00;;
76443;SDS011;65282;51.362;10.082;2022-12-07T04:25:21;12.87;;;7.00;;
76443;SDS011;65282;51.362;10.082;2022-12-07T04:27:48;12.93;;;7.13;;
76443;SDS011;65282;51.362;10.082;2022-12-07T04:30:15;15.97;;;6.73;;
76443;SDS011;65282;51.362;10.082;2022-12-07T04:32:42;13.90;;;7.33;;
76443;SDS011;65282;51.362;10.082;2022-12-07T04:35:09;13.90;;;7.40;;
76443;SDS011;65282;51.362;10.082;2022-12-07T04:37:37;19.47;;;8.30;;
76443;SDS011;65282;51.362;10.082;2022-12-07T04:40:05;15.53;;;7.83;;
76443;SDS011;65282;51.362;10.082;2022-12-07T04:42:33;17.27;;;8.53;;
76443;SDS011;65282;51.362;10.082;2022-12-07T04:45:00;15.67;;;8.07;;
76443;SDS011;65282;51.362;10.082;2022-12-07T04:47:27;18.40;;;9.00;;
76443;SDS011;65282;51.362;10.082;2022-12-07T04:49:54;18.40;;;8.47;;
76443;SDS011;65282;51.362;10.082;2022-12-07T04:52:20;19.10;;;8.33;;
76443;SDS011;65282;51.362;10.082;2022-12-07T04:54:49;17.60;;;8.43;;
76443;SDS011;65282;51.362;10.082;2022-12-07T04:57:15;18.47;;;9.17;;
76443;SDS011;65282;51.362;10.082;2022-12-07T04:59:42;19.27;;;8.50;;
76443;SDS011;65282;51.362;10.082;2022-12-07T05:02:11;19.67;;;9.20;;
76443;SDS011;65282;51.362;10.082;2022-12-07T05:04:38;21.73;;;9.53;;
76443;SDS011;65282;51.362;10.082;2022-12-07T05:07:05;18.20;;;9.63;;
76443;SDS011;65282;51.362;10.082;2022-12-07T05:09:32;22.63;;;11.00;;
76443;SDS011;65282;51.362;10.082;2022-12-07T05:12:00;27.63;;;12.23;;
76443;SDS011;65282;51.362;10.082;2022-12-07T05:14:27;23.10;;;12.37;;
76443;SDS011;65282;51.362;10.082;2022-12-07T05:16:54;22.40;;;9.03;;
76443;SDS011;65282;51.362;10.082;2022-12-07T05:19:21;27.27;;;11.80;;
76443;SDS011;65282;51.362;10.082;2022-12-07T05:21:48;17.73;;;9.13;;
76443;SDS011;65282;51.362;10.082;2022-12-07T05:24:15;27.33;;;12.27;;
76443;SDS011;65282;51.362;10.082;2022-12-07T05:26:42;23.70;;;11.27;;
76443;SDS011;65282;51.362;10.082;2022-12-07T05:29:12;30.33;;;10.57;;
76443;SDS011;65282;51.362;10.082;2022-12-07T05:31:40;26.43;;;11.77;;
76443;SDS011;65282;51.362;10.082;2022-12-07T05:34:07;22.97;;;10.33;;
76443;SDS011;65282;51.362;10.082;2022-12-07T05:36:34;25.03;;;10.60;;
76443;SDS011;65282;51.362;10.082;2022-12-07T05:39:01;25.43;;;11.87;;
76443;SDS011;65282;51.362;10.082;2022-12-07T05:41:28;25.20;;;11.07;;
76443;SDS011;65282;51.362;10.082;2022-12-07T05:43:55;24.20;;;10.37;;
76443;SDS011;65282;51.362;10.082;2022-12-07T05:46:23;25.37;;;11.07;;
76443;SDS011;65282;51.362;10.082;2022-12-07T05:48:50;27.47;;;12.17;;
76443;SDS011;65282;51.362;10.082;2022-12-07T05:51:17;24.20;;;11.00;;
76443;SDS011;65282;51.362;10.082;2022-12-07T05:53:44;21.60;;;10.40;;
76443;SDS011;65282;51.362;10.082;2022-12-07T05:56:11;24.27;;;12.23;;
76443;SDS011;65282;51.362;10.082;2022-12-07T05:58:38;17.67;;;9.20;;
76443;SDS011;65282;51.362;10.082;2022-12-07T06:01:05;25.20;;;11.13;;
76443;SDS011;65282;51.362;10.082;2022-12-07T06:03:34;26.60;;;11.40;;
76443;SDS011;65282;51.362;10.082;2022-12-07T06:06:01;23.60;;;9.53;;
76443;SDS011;65282;51.362;10.082;2022-12-07T06:08:28;24.17;;;11.80;;
76443;SDS011;65282;51.362;10.082;2022-12-07T06:10:55;25.23;;;11.57;;
76443;SDS011;65282;51.362;10.082;2022-12-07T06:13:21;48.70;;;21.10;;
76443;SDS011;65282;51.362;10.082;2022-12-07T06:15:48;34.27;;;14.63;;
76443;SDS011;65282;51.362;10.082;2022-12-07T06:18:15;23.83;;;10.97;;
76443;SDS011;65282;51.362;10.082;2022-12-07T06:20:43;24.40;;;11.50;;
76443;SDS011;65282;51.362;10.082;2022-12-07T06:23:10;23.10;;;11.93;;
76443;SDS011;65282;51.362;10.082;2022-12-07T06:25:37;23.27;;;11.70;;
76443;SDS011;65282;51.362;10.082;2022-12-07T06:28:04;25.53;;;11.73;;
76443;SDS011;65282;51.362;10.082;2022-12-07T06:30:31;24.17;;;10.10;;
76443;SDS011;65282;51.362;10.082;2022-12-07T06:32:57;32.40;;;10.70;;
76443;SDS011;65282;51.362;10.082;2022-12-07T06:35:24;22.60;;;10.40;;
76443;SDS011;65282;51.362;10.082;2022-12-07T06:37:53;24.80;;;9.27;;
76443;SDS011;65282;51.362;10.082;2022-12-07T06:40:19;20.30;;;9.23;;
76443;SDS011;65282;51.362;10.082;2022-12-07T06:42:46;23.10;;;10.33;;
76443;SDS011;65282;51.362;10.082;2022-12-07T06:45:13;22.13;;;10.13;;
76443;SDS011;65282;51.362;10.082;2022-12-07T06:47:40;21.87;;;10.07;;
76443;SDS011;65282;51.362;10.082;2022-12-07T06:50:10;38.27;;;13.17;;
76443;SDS011;65282;51.362;10.082;2022-12-07T06:52:37;34.27;;;12.07;;
76443;SDS011;65282;51.362;10.082;2022-12-07T06:55:06;24.23;;;11.07;;
76443;SDS011;65282;51.362;10.082;2022-12-07T06:57:33;25.83;;;11.43;;
76443;SDS011;65282;51.362;10.082;2022-12-07T07:00:00;21.47;;;9.97;;
76443;SDS011;65282;51.362;10.082;2022-12-07T07:02:30;18.23;;;8.67;;
76443;SDS011;65282;51.362;10.082;2022-12-07T07:04:57;19.03;;;7.97;;
76443;SDS011;65282;51.362;10.082;2022-12-07T07:07:24;22.13;;;9.13;;
76443;SDS011;65282;51.362;10.082;2022-12-07T07:09:51;22.53;;;9.77;;
76443;SDS011;65282;51.362;10.082;2022-12-07T07:12:19;24.10;;;9.73;;
76443;SDS011;65282;51.362;10.082;2022-12-07T07:14:46;19.57;;;8.60;;
76443;SDS011;65282;51.362;10.082;2022-12-07T07:17:13;58.57;;;21.97;;
76443;SDS011;65282;51.362;10.082;2022-12-07T07:19:40;18.93;;;9.53;;
76443;SDS011;65282;51.362;10.082;2022-12-07T07:22:07;22.07;;;8.53;;
76443;SDS011;65282;51.362;10.082;2022-12-07T07:24:34;36.57;;;12.47;;
76443;SDS011;65282;51.362;10.082;2022-12-07T07:27:00;37.80;;;12.03;;
76443;SDS011;65282;51.362;10.082;2022-12-07T07:29:29;26.40;;;11.57;;
76443;SDS011;65282;51.362;10.082;2022-12-07T07:31:56;15.33;;;8.00;;
76443;SDS011;65282;51.362;10.082;2022-12-07T07:34:30;12.97;;;7.20;;
76443;SDS011;65282;51.362;10.082;2022-12-07T07:36:57;16.77;;;6.23;;
76443;SDS011;65282;51.362;10.082;2022-12-07T07:39:24;18.67;;;6.97;;
76443;SDS011;65282;51.362;10.082;2022-12-07T07:41:51;19.40;;;6.80;;
76443;SDS011;65282;51.362;10.082;2022-12-07T07:44:24;17.70;;;6.97;;
76443;SDS011;65282;51.362;10.082;2022-12-07T07:46:59;16.70;;;6.93;;
76443;SDS011;65282;51.362;10.082;2022-12-07T07:49:26;38.63;;;14.97;;
76443;SDS011;65282;51.362;10.082;2022-12-07T07:51:53;16.47;;;8.40;;
76443;SDS011;65282;51.362;10.082;2022-12-07T07:54:20;26.97;;;7.47;;
76443;SDS011;65282;51.362;10.082;2022-12-07T07:56:47;17.60;;;7.30;;
76443;SDS011;65282;51.362;10.082;2022-12-07T07:59:14;15.10;;;7.63;;
76443;SDS011;65282;51.362;10.082;2022-12-07T08:01:41;21.40;;;8.13;;
76443;SDS011;65282;51.362;10.082;2022-12-07T08:04:09;20.83;;;7.73;;
76443;SDS011;65282;51.362;10.082;2022-12-07T08:06:36;13.27;;;6.83;;
76443;SDS011;65282;51.362;10.082;2022-12-07T08:09:03;16.30;;;7.33;;
76443;SDS011;65282;51.362;10.082;2022-12-07T08:11:30;22.23;;;8.67;;
76443;SDS011;65282;51.362;10.082;2022-12-07T08:13:57;19.67;;;8.10;;
76443;SDS011;65282;51.362;10.082;2022-12-07T08:16:24;17.10;;;7.00;;
76443;SDS011;65282;51.362;10.082;2022-12-07T08:18:51;15.80;;;7.47;;
76443;SDS011;65282;51.362;10.082;2022-12-07T08:21:19;11.37;;;6.60;;
76443;SDS011;65282;51.362;10.082;2022-12-07T08:23:46;13.17;;;6.90;;
76443;SDS011;65282;51.362;10.082;2022-12-07T08:26:14;17.07;;;6.67;;
76443;SDS011;65282;51.362;10.082;2022-12-07T08:28:42;18.27;;;7.77;;
76443;SDS011;65282;51.362;10.082;2022-12-07T08:31:11;10.93;;;5.73;;
76443;SDS011;65282;51.362;10.082;2022-12-07T08:33:39;19.20;;;7.67;;
76443;SDS011;65282;51.362;10.082;2022-12-07T08:36:07;13.60;;;5.87;;
76443;SDS011;65282;51.362;10.082;2022-12-07T08:38:37;18.67;;;7.37;;
76443;SDS011;65282;51.362;10.082;2022-12-07T08:41:06;20.03;;;9.33;;
76443;SDS011;65282;51.362;10.082;2022-12-07T08:43:33;14.60;;;6.53;;
76443;SDS011;65282;51.362;10.082;2022-12-07T08:46:03;19.33;;;7.10;;
76443;SDS011;65282;51.362;10.082;2022-12-07T08:48:35;14.40;;;6.67;;
76443;SDS011;65282;51.362;10.082;2022-12-07T08:51:05;10.47;;;6.13;;
76443;SDS011;65282;51.362;10.082;2022-12-07T08:53:32;12.73;;;6.80;;
76443;SDS011;65282;51.362;10.082;2022-12-07T08:56:02;26.63;;;6.77;;
76443;SDS011;65282;51.362;10.082;2022-12-07T08:58:31;19.97;;;7.27;;
76443;SDS011;65282;51.362;10.082;2022-12-07T09:00:58;16.13;;;6.30;;
76443;SDS011;65282;51.362;10.082;2022-12-07T09:03:25;8.23;;;4.53;;
76443;SDS011;65282;51.362;10.082;2022-12-07T09:05:52;16.50;;;5.37;;
76443;SDS011;65282;51.362;10.082;2022-12-07T09:08:20;12.10;;;5.93;;
76443;SDS011;65282;51.362;10.082;2022-12-07T09:10:48;18.20;;;5.83;;
76443;SDS011;65282;51.362;10.082;2022-12-07T09:13:17;18.10;;;6.17;;
76443;SDS011;65282;51.362;10.082;2022-12-07T09:15:44;16.17;;;6.17;;
76443;SDS011;65282;51.362;10.082;2022-12-07T09:18:11;18.60;;;6.17;;
76443;SDS011;65282;51.362;10.082;2022-12-07T09:20:37;8.97;;;3.33;;
76443;SDS011;65282;51.362;10.082;2022-12-07T09:23:05;14.50;;;5.00;;
76443;SDS011;65282;51.362;10.082;2022-12-07T09:25:32;10.97;;;4.67;;
76443;SDS011;65282;51.362;10.082;2022-12-07T09:27:59;10.57;;;5.17;;
76443;SDS011;65282;51.362;10.082;2022-12-07T09:30:28;15.33;;;5.77;;
76443;SDS011;65282;51.362;10.082;2022-12-07T09:32:55;13.97;;;6.00;;
76443;SDS011;65282;51.362;10.082;2022-12-07T09:35:23;14.47;;;5.37;;
76443;SDS011;65282;51.362;10.082;2022-12-07T09:37:50;9.87;;;4.73;;
76443;SDS011;65282;51.362;10.082;2022-12-07T09:40:17;8.47;;;4.40;;
76443;SDS011;65282;51.362;10.082;2022-12-07T09:42:47;7.90;;;3.83;;
76443;SDS011;65282;51.362;10.082;2022-12-07T09:45:18;17.67;;;5.37;;
76443;SDS011;65282;51.362;10.082;2022-12-07T09:47:49;10.00;;;5.10;;
76443;SDS011;65282;51.362;10.082;2022-12-07T09:50:16;15.60;;;5.20;;
76443;SDS011;65282;51.362;10.082;2022-12-07T09:52:47;10.60;;;4.40;;
76443;SDS011;65282;51.362;10.082;2022-12-07T09:55:15;18.43;;;6.67;;
76443;SDS011;65282;51.362;10.082;2022-12-07T09:57:45;17.97;;;5.33;;
76443;SDS011;65282;51.362;10.082;2022-12-07T10:00:13;11.40;;;4.37;;
76443;SDS011;65282;51.362;10.082;2022-12-07T10:02:42;11.63;;;4.50;;
76443;SDS011;65282;51.362;10.082;2022-12-07T10:05:14;15.03;;;5.10;;
76443;SDS011;65282;51.362;10.082;2022-12-07T10:07:49;9.90;;;4.50;;
76443;SDS011;65282;51.362;10.082;2022-12-07T10:10:17;8.17;;;3.97;;
76443;SDS011;65282;51.362;10.082;2022-12-07T10:12:53;10.13;;;4.30;;
76443;SDS011;65282;51.362;10.082;2022-12-07T10:15:22;9.63;;;4.27;;
76443;SDS011;65282;51.362;10.082;2022-12-07T10:17:50;12.20;;;4.60;;
76443;SDS011;65282;51.362;10.082;2022-12-07T10:20:20;10.10;;;4.03;;
76443;SDS011;65282;51.362;10.082;2022-12-07T10:22:57;8.13;;;3.87;;
76443;SDS011;65282;51.362;10.082;2022-12-07T10:25:29;8.17;;;3.80;;
76443;SDS011;65282;51.362;10.082;2022-12-07T10:27:57;9.23;;;3.77;;
76443;SDS011;65282;51.362;10.082;2022-12-07T10:30:26;12.33;;;3.83;;
76443;SDS011;65282;51.362;10.082;2022-12-07T10:32:53;7.23;;;3.57;;
76443;SDS011;65282;51.362;10.082;2022-12-07T10:35:23;9.27;;;4.17;;
76443;SDS011;65282;51.362;10.082;2022-12-07T10:37:51;12.40;;;5.40;;
76443;SDS011;65282;51.362;10.082;2022-12-07T10:40:30;12.83;;;4.67;;
76443;SDS011;65282;51.362;10.082;2022-12-07T10:43:02;10.40;;;4.80;;
76443;SDS011;65282;51.362;10.082;2022-12-07T10:45:32;9.87;;;4.97;;
76443;SDS011;65282;51.362;10.082;2022-12-07T10:48:08;10.17;;;5.10;;
76443;SDS011;65282;51.362;10.082;2022-12-07T10:53:39;12.77;;;5.30;;
76443;SDS011;65282;51.362;10.082;2022-12-07T10:56:24;8.07;;;4.33;;
76443;SDS011;65282;51.362;10.082;2022-12-07T10:59:22;10.60;;;3.00;;
76443;SDS011;65282;51.362;10.082;2022-12-07T11:02:08;9.33;;;4.03;;
76443;SDS011;65282;51.362;10.082;2022-12-07T11:04:53;11.20;;;4.00;;
76443;SDS011;65282;51.362;10.082;2022-12-07T11:07:34;13.13;;;4.20;;
76443;SDS011;65282;51.362;10.082;2022-12-07T11:10:08;10.90;;;4.83;;
76443;SDS011;65282;51.362;10.082;2022-12-07T11:12:46;5.97;;;3.00;;
76443;SDS011;65282;51.362;10.082;2022-12-07T11:15:21;7.20;;;3.27;;
76443;SDS011;65282;51.362;10.082;2022-12-07T11:17:54;6.63;;;2.93;;
76443;SDS011;65282;51.362;10.082;2022-12-07T11:20:29;6.70;;;3.20;;
76443;SDS011;65282;51.362;10.082;2022-12-07T11:23:09;10.93;;;3.77;;
76443;SDS011;65282;51.362;10.082;2022-12-07T11:25:44;9.87;;;3.33;;
76443;SDS011;65282;51.362;10.082;2022-12-07T11:28:19;4.93;;;2.33;;
76443;SDS011;65282;51.362;10.082;2022-12-07T11:30:56;6.93;;;3.17;;
76443;SDS011;65282;51.362;10.082;2022-12-07T11:33:32;11.90;;;3.57;;
76443;SDS011;65282;51.362;10.082;2022-12-07T11:36:08;6.50;;;2.70;;
76443;SDS011;65282;51.362;10.082;2022-12-07T11:38:59;9.77;;;2.73;;
76443;SDS011;65282;51.362;10.082;2022-12-07T11:41:29;7.77;;;3.53;;
76443;SDS011;65282;51.362;10.082;2022-12-07T11:44:01;9.33;;;3.30;;
76443;SDS011;65282;51.362;10.082;2022-12-07T11:46:36;6.70;;;3.00;;
76443;SDS011;65282;51.362;10.082;2022-12-07T11:49:12;8.30;;;2.77;;
76443;SDS011;65282;51.362;10.082;2022-12-07T11:51:45;8.47;;;3.33;;
76443;SDS011;65282;51.362;10.082;2022-12-07T11:54:15;9.20;;;2.67;;
76443;SDS011;65282;51.362;10.082;2022-12-07T11:56:45;8.93;;;3.00;;
76443;SDS011;65282;51.362;10.082;2022-12-07T11:59:17;12.17;;;2.70;;
76443;SDS011;65282;51.362;10.082;2022-12-07T12:01:52;10.60;;;2.93;;
76443;SDS011;65282;51.362;10.082;2022-12-07T12:04:24;11.93;;;3.63;;
76443;SDS011;65282;51.362;10.082;2022-12-07T12:06:57;7.87;;;3.00;;
76443;SDS011;65282;51.362;10.082;2022-12-07T12:09:48;13.30;;;4.87;;
76443;SDS011;65282;51.362;10.082;2022-12-07T12:12:26;6.27;;;2.97;;
76443;SDS011;65282;51.362;10.082;2022-12-07T12:15:35;12.87;;;3.43;;
76443;SDS011;65282;51.362;10.082;2022-12-07T12:18:20;6.30;;;3.40;;
76443;SDS011;65282;51.362;10.082;2022-12-07T12:21:02;10.97;;;3.23;;
76443;SDS011;65282;51.362;10.082;2022-12-07T12:23:35;7.40;;;3.60;;
76443;SDS011;65282;51.362;10.082;2022-12-07T12:26:13;6.67;;;2.87;;
76443;SDS011;65282;51.362;10.082;2022-12-07T12:28:49;9.23;;;3.17;;
76443;SDS011;65282;51.362;10.082;2022-12-07T12:31:37;7.70;;;3.23;;
76443;SDS011;65282;51.362;10.082;2022-12-07T12:36:58;12.20;;;3.67;;
76443;SDS011;65282;51.362;10.082;2022-12-07T12:39:25;9.00;;;2.63;;
76443;SDS011;65282;51.362;10.082;2022-12-07T12:42:00;10.77;;;4.27;;
76443;SDS011;65282;51.362;10.082;2022-12-07T12:44:40;7.87;;;3.30;;
76443;SDS011;65282;51.362;10.082;2022-12-07T12:50:21;13.07;;;3.17;;
76443;SDS011;65282;51.362;10.082;2022-12-07T12:52:51;10.83;;;2.87;;
76443;SDS011;65282;51.362;10.082;2022-12-07T12:58:36;7.30;;;2.97;;
76443;SDS011;65282;51.362;10.082;2022-12-07T13:10:33;8.47;;;2.57;;
76443;SDS011;65282;51.362;10.082;2022-12-07T13:13:05;12.00;;;2.60;;
76443;SDS011;65282;51.362;10.082;2022-12-07T13:25:07;7.67;;;2.90;;
76443;SDS011;65282;51.362;10.082;2022-12-07T13:27:37;6.20;;;2.30;;
76443;SDS011;65282;51.362;10.082;2022-12-07T13:30:11;8.03;;;3.23;;
76443;SDS011;65282;51.362;10.082;2022-12-07T13:32:41;16.83;;;5.63;;
76443;SDS011;65282;51.362;10.082;2022-12-07T13:35:27;12.07;;;2.53;;
76443;SDS011;65282;51.362;10.082;2022-12-07T13:37:55;11.63;;;3.53;;
76443;SDS011;65282;51.362;10.082;2022-12-07T13:40:23;14.20;;;3.50;;
76443;SDS011;65282;51.362;10.082;2022-12-07T13:42:56;16.83;;;3.40;;
76443;SDS011;65282;51.362;10.082;2022-12-07T13:45:26;11.13;;;2.83;;
76443;SDS011;65282;51.362;10.082;2022-12-07T13:47:55;5.37;;;2.50;;
76443;SDS011;65282;51.362;10.082;2022-12-07T13:50:25;6.20;;;2.90;;
76443;SDS011;65282;51.362;10.082;2022-12-07T13:52:55;11.93;;;3.30;;
76443;SDS011;65282;51.362;10.082;2022-12-07T13:55:23;9.80;;;3.23;;
76443;SDS011;65282;51.362;10.082;2022-12-07T13:57:50;13.77;;;4.77;;
76443;SDS011;65282;51.362;10.082;2022-12-07T14:00:19;10.77;;;3.90;;
76443;SDS011;65282;51.362;10.082;2022-12-07T14:02:55;44.20;;;11.83;;
76443;SDS011;65282;51.362;10.082;2022-12-07T14:05:24;9.67;;;3.97;;
76443;SDS011;65282;51.362;10.082;2022-12-07T14:07:53;10.93;;;3.73;;
76443;SDS011;65282;51.362;10.082;2022-12-07T14:10:25;12.23;;;4.37;;
76443;SDS011;65282;51.362;10.082;2022-12-07T14:12:54;13.93;;;4.30;;
76443;SDS011;65282;51.362;10.082;2022-12-07T14:15:22;11.07;;;3.83;;
76443;SDS011;65282;51.362;10.082;2022-12-07T14:17:51;11.80;;;3.67;;
76443;SDS011;65282;51.362;10.082;2022-12-07T14:20:31;14.20;;;3.90;;
76443;SDS011;65282;51.362;10.082;2022-12-07T14:22:59;17.30;;;4.50;;
76443;SDS011;65282;51.362;10.082;2022-12-07T14:25:26;24.70;;;6.17;;
76443;SDS011;65282;51.362;10.082;2022-12-07T14:27:54;13.40;;;4.63;;
76443;SDS011;65282;51.362;10.082;2022-12-07T14:30:23;23.90;;;6.87;;
76443;SDS011;65282;51.362;10.082;2022-12-07T14:32:53;18.47;;;5.93;;
76443;SDS011;65282;51.362;10.082;2022-12-07T14:35:23;20.77;;;7.03;;
76443;SDS011;65282;51.362;10.082;2022-12-07T14:37:51;84.47;;;23.63;;
76443;SDS011;65282;51.362;10.082;2022-12-07T14:40:19;15.87;;;6.10;;
76443;SDS011;65282;51.362;10.082;2022-12-07T14:42:47;20.37;;;5.80;;
76443;SDS011;65282;51.362;10.082;2022-12-07T14:45:17;15.53;;;5.00;;
76443;SDS011;65282;51.362;10.082;2022-12-07T14:47:46;6.23;;;3.13;;
76443;SDS011;65282;51.362;10.082;2022-12-07T14:50:35;11.83;;;4.00;;
76443;SDS011;65282;51.362;10.082;2022-12-07T14:53:06;52.73;;;18.27;;
76443;SDS011;65282;51.362;10.082;2022-12-07T14:55:52;11.90;;;3.83;;
76443;SDS011;65282;51.362;10.082;2022-12-07T14:58:19;11.70;;;3.80;;
76443;SDS011;65282;51.362;10.082;2022-12-07T15:00:46;18.13;;;6.30;;
76443;SDS011;65282;51.362;10.082;2022-12-07T15:03:13;12.73;;;3.73;;
76443;SDS011;65282;51.362;10.082;2022-12-07T15:05:41;9.60;;;4.17;;
76443;SDS011;65282;51.362;10.082;2022-12-07T15:08:09;7.70;;;4.27;;
76443;SDS011;65282;51.362;10.082;2022-12-07T15:10:37;10.73;;;3.63;;